CPX464 Details

Departure: Tampa International Airport (KTPA)
Arrival: March Air Reserve Base (KRIV)
Route: ENDED8 LACEN PATOY Q116 JAWJA CABLO MEI ELD SPS J72 TXO DRK J78 TRM ARKOE1


Current Weather Information
KTPA 191653Z VRB05KT 10SM FEW040 BKN230 32/22 A3010 RMK AO2 SLP193 T03220222
KRIV 191558Z AUTO 00000KT 6SM BR CLR 20/19 A2998 RMK AO2 SLP142 T02000192